Terminal Aerodrome Forecast
Issued by NWS Cleveland, OH

Home | Current Version | Previous Version | Text Only | Print | Product List | Glossary On
Versions: 1 2 3 4 5 6 7 8 9 10 11 12 13 14 15 16 17 18 19 20 21 22 23 24 25 26 27 28 29 30 31 32 33 34 35 36 37 38 39 40 41 42
000
FTUS41 KCLE 230550
TAFCAK
TAF
KCAK 230550Z 2306/2406 17010KT P6SM SCT050 BKN080 WS020/21050KT
     FM231000 18014G22KT 6SM -RA BR OVC040
     FM231400 19014G22KT 3SM -RA BR OVC020
     FM231600 20015G25KT 2SM -RA BR OVC008
     FM232100 22014G22KT 5SM -RA BR OVC006
     FM240500 26010KT P6SM OVC015=

USA.gov is the U.S. government's official web portal to all federal, state and local government web resources and services.